sensor_id;sensor_type;location;lat;lon;timestamp;temperature;humidity
25973;DHT22;13765;51.166;4.466;2023-05-09T00:01:25;15.70;99.90
25973;DHT22;13765;51.166;4.466;2023-05-09T00:03:56;15.70;99.90
25973;DHT22;13765;51.166;4.466;2023-05-09T00:06:24;15.70;99.90
25973;DHT22;13765;51.166;4.466;2023-05-09T00:08:53;15.70;99.90
25973;DHT22;13765;51.166;4.466;2023-05-09T00:11:19;15.70;99.90
25973;DHT22;13765;51.166;4.466;2023-05-09T00:13:47;15.70;99.90
25973;DHT22;13765;51.166;4.466;2023-05-09T00:16:16;15.70;99.90
25973;DHT22;13765;51.166;4.466;2023-05-09T00:18:47;15.60;99.90
25973;DHT22;13765;51.166;4.466;2023-05-09T00:21:15;15.50;99.90
25973;DHT22;13765;51.166;4.466;2023-05-09T00:23:43;15.50;99.90
25973;DHT22;13765;51.166;4.466;2023-05-09T00:26:09;15.60;99.90
25973;DHT22;13765;51.166;4.466;2023-05-09T00:28:35;15.60;99.90
25973;DHT22;13765;51.166;4.466;2023-05-09T00:31:03;15.60;99.90
25973;DHT22;13765;51.166;4.466;2023-05-09T00:33:29;15.60;99.90
25973;DHT22;13765;51.166;4.466;2023-05-09T00:35:58;15.60;99.90
25973;DHT22;13765;51.166;4.466;2023-05-09T00:38:23;15.60;99.90
25973;DHT22;13765;51.166;4.466;2023-05-09T00:40:51;15.60;99.90
25973;DHT22;13765;51.166;4.466;2023-05-09T00:43:17;15.60;99.90
25973;DHT22;13765;51.166;4.466;2023-05-09T00:45:43;15.60;99.90
25973;DHT22;13765;51.166;4.466;2023-05-09T00:48:10;15.60;99.90
25973;DHT22;13765;51.166;4.466;2023-05-09T00:50:38;15.60;99.90
25973;DHT22;13765;51.166;4.466;2023-05-09T00:53:03;15.60;99.90
25973;DHT22;13765;51.166;4.466;2023-05-09T00:55:32;15.60;99.90
25973;DHT22;13765;51.166;4.466;2023-05-09T00:57:58;15.60;99.90
25973;DHT22;13765;51.166;4.466;2023-05-09T01:00:24;15.60;99.90
25973;DHT22;13765;51.166;4.466;2023-05-09T01:02:54;15.50;99.90
25973;DHT22;13765;51.166;4.466;2023-05-09T01:05:22;15.60;99.90
25973;DHT22;13765;51.166;4.466;2023-05-09T01:08:12;15.50;99.90
25973;DHT22;13765;51.166;4.466;2023-05-09T01:11:06;15.50;99.90
25973;DHT22;13765;51.166;4.466;2023-05-09T01:16:22;15.50;99.90
25973;DHT22;13765;51.166;4.466;2023-05-09T01:19:09;15.50;99.90
25973;DHT22;13765;51.166;4.466;2023-05-09T01:21:46;15.40;99.90
25973;DHT22;13765;51.166;4.466;2023-05-09T01:27:20;15.50;99.90
25973;DHT22;13765;51.166;4.466;2023-05-09T01:29:47;15.40;99.90
25973;DHT22;13765;51.166;4.466;2023-05-09T01:32:23;15.40;99.90
25973;DHT22;13765;51.166;4.466;2023-05-09T01:34:57;15.40;99.90
25973;DHT22;13765;51.166;4.466;2023-05-09T01:37:33;15.40;99.90
25973;DHT22;13765;51.166;4.466;2023-05-09T01:40:05;15.30;99.90
25973;DHT22;13765;51.166;4.466;2023-05-09T01:42:43;15.40;99.90
25973;DHT22;13765;51.166;4.466;2023-05-09T01:45:10;15.40;99.90
25973;DHT22;13765;51.166;4.466;2023-05-09T01:47:37;15.40;99.90
25973;DHT22;13765;51.166;4.466;2023-05-09T01:50:04;15.40;99.90
25973;DHT22;13765;51.166;4.466;2023-05-09T01:52:31;15.40;99.90
25973;DHT22;13765;51.166;4.466;2023-05-09T01:55:00;15.30;99.90
25973;DHT22;13765;51.166;4.466;2023-05-09T01:57:29;15.30;99.90
25973;DHT22;13765;51.166;4.466;2023-05-09T01:59:58;15.40;99.90
25973;DHT22;13765;51.166;4.466;2023-05-09T02:02:26;15.40;99.90
25973;DHT22;13765;51.166;4.466;2023-05-09T02:04:55;15.30;99.90
25973;DHT22;13765;51.166;4.466;2023-05-09T02:07:23;15.40;99.90
25973;DHT22;13765;51.166;4.466;2023-05-09T02:09:49;15.30;99.90
25973;DHT22;13765;51.166;4.466;2023-05-09T02:12:18;15.30;99.90
25973;DHT22;13765;51.166;4.466;2023-05-09T02:14:44;15.30;99.90
25973;DHT22;13765;51.166;4.466;2023-05-09T02:17:10;15.30;99.90
25973;DHT22;13765;51.166;4.466;2023-05-09T02:19:44;15.20;99.90
25973;DHT22;13765;51.166;4.466;2023-05-09T02:22:11;15.30;99.90
25973;DHT22;13765;51.166;4.466;2023-05-09T02:24:42;15.30;99.90
25973;DHT22;13765;51.166;4.466;2023-05-09T02:27:10;15.30;99.90
25973;DHT22;13765;51.166;4.466;2023-05-09T02:29:43;15.30;99.90
25973;DHT22;13765;51.166;4.466;2023-05-09T02:32:13;15.30;99.90
25973;DHT22;13765;51.166;4.466;2023-05-09T02:34:44;15.30;99.90
25973;DHT22;13765;51.166;4.466;2023-05-09T02:37:13;15.30;99.90
25973;DHT22;13765;51.166;4.466;2023-05-09T02:39:44;15.20;99.90
25973;DHT22;13765;51.166;4.466;2023-05-09T02:42:17;15.20;99.90
25973;DHT22;13765;51.166;4.466;2023-05-09T02:44:47;15.20;99.90
25973;DHT22;13765;51.166;4.466;2023-05-09T02:47:13;15.20;99.90
25973;DHT22;13765;51.166;4.466;2023-05-09T02:49:40;15.10;99.90
25973;DHT22;13765;51.166;4.466;2023-05-09T02:52:06;15.10;99.90
25973;DHT22;13765;51.166;4.466;2023-05-09T02:54:35;15.20;99.90
25973;DHT22;13765;51.166;4.466;2023-05-09T02:57:01;15.10;99.90
25973;DHT22;13765;51.166;4.466;2023-05-09T02:59:26;15.10;99.90
25973;DHT22;13765;51.166;4.466;2023-05-09T03:01:52;15.10;99.90
25973;DHT22;13765;51.166;4.466;2023-05-09T03:04:17;15.00;99.90
25973;DHT22;13765;51.166;4.466;2023-05-09T03:06:46;15.00;99.90
25973;DHT22;13765;51.166;4.466;2023-05-09T03:09:11;15.00;99.90
25973;DHT22;13765;51.166;4.466;2023-05-09T03:11:37;15.10;99.90
25973;DHT22;13765;51.166;4.466;2023-05-09T03:14:05;15.10;99.90
25973;DHT22;13765;51.166;4.466;2023-05-09T03:16:33;15.00;99.90
25973;DHT22;13765;51.166;4.466;2023-05-09T03:18:59;15.00;99.90
25973;DHT22;13765;51.166;4.466;2023-05-09T03:21:24;14.90;99.90
25973;DHT22;13765;51.166;4.466;2023-05-09T03:23:53;14.90;99.90
25973;DHT22;13765;51.166;4.466;2023-05-09T03:26:21;15.00;99.90
25973;DHT22;13765;51.166;4.466;2023-05-09T03:28:47;15.00;99.90
25973;DHT22;13765;51.166;4.466;2023-05-09T03:31:13;14.90;99.90
25973;DHT22;13765;51.166;4.466;2023-05-09T03:33:42;14.90;99.90
25973;DHT22;13765;51.166;4.466;2023-05-09T03:36:09;14.90;99.90
25973;DHT22;13765;51.166;4.466;2023-05-09T03:38:35;14.90;99.90
25973;DHT22;13765;51.166;4.466;2023-05-09T03:41:03;14.90;99.90
25973;DHT22;13765;51.166;4.466;2023-05-09T03:43:31;14.90;99.90
25973;DHT22;13765;51.166;4.466;2023-05-09T03:45:56;14.90;99.90
25973;DHT22;13765;51.166;4.466;2023-05-09T03:48:22;14.90;99.90
25973;DHT22;13765;51.166;4.466;2023-05-09T03:50:48;15.00;99.90
25973;DHT22;13765;51.166;4.466;2023-05-09T03:53:13;15.00;99.90
25973;DHT22;13765;51.166;4.466;2023-05-09T03:55:41;15.00;99.90
25973;DHT22;13765;51.166;4.466;2023-05-09T03:58:11;15.00;99.90
25973;DHT22;13765;51.166;4.466;2023-05-09T04:00:37;15.10;99.90
25973;DHT22;13765;51.166;4.466;2023-05-09T04:03:03;15.10;99.90
25973;DHT22;13765;51.166;4.466;2023-05-09T04:05:31;15.10;99.90
25973;DHT22;13765;51.166;4.466;2023-05-09T04:07:58;15.10;99.90
25973;DHT22;13765;51.166;4.466;2023-05-09T04:10:24;15.10;99.90
25973;DHT22;13765;51.166;4.466;2023-05-09T04:12:55;15.10;99.90
25973;DHT22;13765;51.166;4.466;2023-05-09T04:15:21;15.10;99.90
25973;DHT22;13765;51.166;4.466;2023-05-09T04:17:46;15.20;99.90
25973;DHT22;13765;51.166;4.466;2023-05-09T04:20:12;15.20;99.90
25973;DHT22;13765;51.166;4.466;2023-05-09T04:22:38;15.20;99.90
25973;DHT22;13765;51.166;4.466;2023-05-09T04:25:04;15.20;99.90
25973;DHT22;13765;51.166;4.466;2023-05-09T04:27:29;15.20;99.90
25973;DHT22;13765;51.166;4.466;2023-05-09T04:29:56;15.30;99.90
25973;DHT22;13765;51.166;4.466;2023-05-09T04:32:22;15.30;99.90
25973;DHT22;13765;51.166;4.466;2023-05-09T04:34:50;15.20;99.90
25973;DHT22;13765;51.166;4.466;2023-05-09T04:37:16;15.20;99.90
25973;DHT22;13765;51.166;4.466;2023-05-09T04:39:41;15.10;99.90
25973;DHT22;13765;51.166;4.466;2023-05-09T04:42:07;15.10;99.90
25973;DHT22;13765;51.166;4.466;2023-05-09T04:44:33;15.20;99.90
25973;DHT22;13765;51.166;4.466;2023-05-09T04:47:00;15.20;99.90
25973;DHT22;13765;51.166;4.466;2023-05-09T04:49:30;15.20;99.90
25973;DHT22;13765;51.166;4.466;2023-05-09T04:51:56;15.10;99.90
25973;DHT22;13765;51.166;4.466;2023-05-09T04:54:21;15.20;99.90
25973;DHT22;13765;51.166;4.466;2023-05-09T04:56:47;15.10;99.90
25973;DHT22;13765;51.166;4.466;2023-05-09T04:59:12;15.10;99.90
25973;DHT22;13765;51.166;4.466;2023-05-09T05:01:38;15.10;99.90
25973;DHT22;13765;51.166;4.466;2023-05-09T05:04:06;15.10;99.90
25973;DHT22;13765;51.166;4.466;2023-05-09T05:06:34;15.10;99.90
25973;DHT22;13765;51.166;4.466;2023-05-09T05:09:00;15.20;99.90
25973;DHT22;13765;51.166;4.466;2023-05-09T05:11:25;15.10;99.90
25973;DHT22;13765;51.166;4.466;2023-05-09T05:13:51;15.10;99.90
25973;DHT22;13765;51.166;4.466;2023-05-09T05:16:16;15.10;99.90
25973;DHT22;13765;51.166;4.466;2023-05-09T05:18:44;15.20;99.90
25973;DHT22;13765;51.166;4.466;2023-05-09T05:21:12;15.10;99.90
25973;DHT22;13765;51.166;4.466;2023-05-09T05:23:44;15.10;99.90
25973;DHT22;13765;51.166;4.466;2023-05-09T05:26:13;15.20;99.90
25973;DHT22;13765;51.166;4.466;2023-05-09T05:28:41;15.10;99.90
25973;DHT22;13765;51.166;4.466;2023-05-09T05:31:11;15.10;99.90
25973;DHT22;13765;51.166;4.466;2023-05-09T05:33:36;15.10;99.90
25973;DHT22;13765;51.166;4.466;2023-05-09T05:36:02;15.00;99.90
25973;DHT22;13765;51.166;4.466;2023-05-09T05:38:28;15.00;99.90
25973;DHT22;13765;51.166;4.466;2023-05-09T05:40:54;15.00;99.90
25973;DHT22;13765;51.166;4.466;2023-05-09T05:43:20;15.10;99.90
25973;DHT22;13765;51.166;4.466;2023-05-09T05:45:46;15.10;99.90
25973;DHT22;13765;51.166;4.466;2023-05-09T05:48:13;15.10;99.90
25973;DHT22;13765;51.166;4.466;2023-05-09T05:50:42;15.10;99.90
25973;DHT22;13765;51.166;4.466;2023-05-09T05:53:07;15.10;99.90
25973;DHT22;13765;51.166;4.466;2023-05-09T05:55:33;15.00;99.90
25973;DHT22;13765;51.166;4.466;2023-05-09T05:58:01;15.00;99.90
25973;DHT22;13765;51.166;4.466;2023-05-09T06:00:26;15.10;99.90
25973;DHT22;13765;51.166;4.466;2023-05-09T06:02:52;15.00;99.90
25973;DHT22;13765;51.166;4.466;2023-05-09T06:05:18;15.00;99.90
25973;DHT22;13765;51.166;4.466;2023-05-09T06:07:46;15.00;99.90
25973;DHT22;13765;51.166;4.466;2023-05-09T06:10:14;15.10;99.90
25973;DHT22;13765;51.166;4.466;2023-05-09T06:12:41;15.10;99.90
25973;DHT22;13765;51.166;4.466;2023-05-09T06:15:09;15.10;99.90
25973;DHT22;13765;51.166;4.466;2023-05-09T06:17:35;15.20;99.90
25973;DHT22;13765;51.166;4.466;2023-05-09T06:20:03;15.10;99.90
25973;DHT22;13765;51.166;4.466;2023-05-09T06:22:28;15.20;99.90
25973;DHT22;13765;51.166;4.466;2023-05-09T06:24:54;15.20;99.90
25973;DHT22;13765;51.166;4.466;2023-05-09T06:27:22;15.30;99.90
25973;DHT22;13765;51.166;4.466;2023-05-09T06:29:50;15.40;99.90
25973;DHT22;13765;51.166;4.466;2023-05-09T06:32:17;15.50;99.90
25973;DHT22;13765;51.166;4.466;2023-05-09T06:34:45;15.60;99.90
25973;DHT22;13765;51.166;4.466;2023-05-09T06:37:11;15.60;99.90
25973;DHT22;13765;51.166;4.466;2023-05-09T06:39:36;15.70;99.90
25973;DHT22;13765;51.166;4.466;2023-05-09T06:42:04;15.80;99.90
25973;DHT22;13765;51.166;4.466;2023-05-09T06:44:30;15.80;99.90
25973;DHT22;13765;51.166;4.466;2023-05-09T06:46:57;15.90;99.90
25973;DHT22;13765;51.166;4.466;2023-05-09T06:49:22;16.00;99.90
25973;DHT22;13765;51.166;4.466;2023-05-09T06:51:48;16.00;99.90
25973;DHT22;13765;51.166;4.466;2023-05-09T06:54:14;16.00;99.90
25973;DHT22;13765;51.166;4.466;2023-05-09T06:56:41;16.00;99.90
25973;DHT22;13765;51.166;4.466;2023-05-09T06:59:07;16.10;99.90
25973;DHT22;13765;51.166;4.466;2023-05-09T07:01:40;16.20;99.90
25973;DHT22;13765;51.166;4.466;2023-05-09T07:04:06;16.20;99.90
25973;DHT22;13765;51.166;4.466;2023-05-09T07:06:31;16.30;99.90
25973;DHT22;13765;51.166;4.466;2023-05-09T07:08:57;16.20;99.90
25973;DHT22;13765;51.166;4.466;2023-05-09T07:11:23;16.30;99.90
25973;DHT22;13765;51.166;4.466;2023-05-09T07:13:51;16.20;99.90
25973;DHT22;13765;51.166;4.466;2023-05-09T07:16:17;16.20;99.90
25973;DHT22;13765;51.166;4.466;2023-05-09T07:18:47;16.20;99.90
25973;DHT22;13765;51.166;4.466;2023-05-09T07:21:12;16.30;99.90
25973;DHT22;13765;51.166;4.466;2023-05-09T07:23:38;16.40;99.90
25973;DHT22;13765;51.166;4.466;2023-05-09T07:26:06;16.20;99.90
25973;DHT22;13765;51.166;4.466;2023-05-09T07:28:34;16.20;99.90
25973;DHT22;13765;51.166;4.466;2023-05-09T07:31:02;16.20;99.90
25973;DHT22;13765;51.166;4.466;2023-05-09T07:33:27;16.20;99.90
25973;DHT22;13765;51.166;4.466;2023-05-09T07:35:53;16.20;99.90
25973;DHT22;13765;51.166;4.466;2023-05-09T07:38:19;16.20;99.90
25973;DHT22;13765;51.166;4.466;2023-05-09T07:40:44;16.20;99.90
25973;DHT22;13765;51.166;4.466;2023-05-09T07:43:10;16.20;99.90
25973;DHT22;13765;51.166;4.466;2023-05-09T07:45:36;16.20;99.90
25973;DHT22;13765;51.166;4.466;2023-05-09T07:48:05;16.20;99.90
25973;DHT22;13765;51.166;4.466;2023-05-09T07:50:34;16.20;99.90
25973;DHT22;13765;51.166;4.466;2023-05-09T07:52:59;16.30;99.90
25973;DHT22;13765;51.166;4.466;2023-05-09T07:55:27;16.30;99.90
25973;DHT22;13765;51.166;4.466;2023-05-09T07:57:55;16.30;99.90
25973;DHT22;13765;51.166;4.466;2023-05-09T08:00:24;16.20;99.90
25973;DHT22;13765;51.166;4.466;2023-05-09T08:02:52;16.20;99.90
25973;DHT22;13765;51.166;4.466;2023-05-09T08:05:19;16.30;99.90
25973;DHT22;13765;51.166;4.466;2023-05-09T08:07:47;16.30;99.90
25973;DHT22;13765;51.166;4.466;2023-05-09T08:10:12;16.40;99.90
25973;DHT22;13765;51.166;4.466;2023-05-09T08:12:38;16.40;99.90
25973;DHT22;13765;51.166;4.466;2023-05-09T08:15:04;16.50;99.90
25973;DHT22;13765;51.166;4.466;2023-05-09T08:17:33;16.50;99.90
25973;DHT22;13765;51.166;4.466;2023-05-09T08:19:59;16.60;99.90
25973;DHT22;13765;51.166;4.466;2023-05-09T08:22:25;16.40;99.90
25973;DHT22;13765;51.166;4.466;2023-05-09T08:24:53;16.50;99.90
25973;DHT22;13765;51.166;4.466;2023-05-09T08:27:18;16.40;99.90
25973;DHT22;13765;51.166;4.466;2023-05-09T08:29:44;16.40;99.90
25973;DHT22;13765;51.166;4.466;2023-05-09T08:32:09;16.20;99.90
25973;DHT22;13765;51.166;4.466;2023-05-09T08:34:35;16.20;99.90
25973;DHT22;13765;51.166;4.466;2023-05-09T08:37:03;16.20;99.90
25973;DHT22;13765;51.166;4.466;2023-05-09T08:39:29;16.20;99.90
25973;DHT22;13765;51.166;4.466;2023-05-09T08:42:00;16.10;99.90
25973;DHT22;13765;51.166;4.466;2023-05-09T08:44:27;16.20;99.90
25973;DHT22;13765;51.166;4.466;2023-05-09T08:47:02;16.20;99.90
25973;DHT22;13765;51.166;4.466;2023-05-09T08:49:30;16.20;99.90
25973;DHT22;13765;51.166;4.466;2023-05-09T08:51:58;16.20;99.90
25973;DHT22;13765;51.166;4.466;2023-05-09T08:54:26;16.20;99.90
25973;DHT22;13765;51.166;4.466;2023-05-09T08:56:53;16.20;99.90
25973;DHT22;13765;51.166;4.466;2023-05-09T08:59:19;16.20;99.90
25973;DHT22;13765;51.166;4.466;2023-05-09T09:01:45;16.10;99.90
25973;DHT22;13765;51.166;4.466;2023-05-09T09:04:11;16.00;99.90
25973;DHT22;13765;51.166;4.466;2023-05-09T09:06:37;16.00;99.90
25973;DHT22;13765;51.166;4.466;2023-05-09T09:09:05;16.00;99.90
25973;DHT22;13765;51.166;4.466;2023-05-09T09:11:36;15.90;99.90
25973;DHT22;13765;51.166;4.466;2023-05-09T09:14:11;16.10;99.90
25973;DHT22;13765;51.166;4.466;2023-05-09T09:16:43;16.00;99.90
25973;DHT22;13765;51.166;4.466;2023-05-09T09:19:12;15.90;99.90
25973;DHT22;13765;51.166;4.466;2023-05-09T09:21:41;15.80;99.90
25973;DHT22;13765;51.166;4.466;2023-05-09T09:24:11;16.00;99.90
25973;DHT22;13765;51.166;4.466;2023-05-09T09:26:45;16.00;99.90
25973;DHT22;13765;51.166;4.466;2023-05-09T09:29:12;16.00;99.90
25973;DHT22;13765;51.166;4.466;2023-05-09T09:31:38;16.10;99.90
25973;DHT22;13765;51.166;4.466;2023-05-09T09:34:03;16.00;99.90
25973;DHT22;13765;51.166;4.466;2023-05-09T09:36:30;16.10;99.90
25973;DHT22;13765;51.166;4.466;2023-05-09T09:39:03;16.20;99.90
25973;DHT22;13765;51.166;4.466;2023-05-09T09:41:35;16.20;99.90
25973;DHT22;13765;51.166;4.466;2023-05-09T09:44:11;16.20;99.90
25973;DHT22;13765;51.166;4.466;2023-05-09T09:46:55;16.20;99.90
25973;DHT22;13765;51.166;4.466;2023-05-09T09:49:25;16.40;99.90
25973;DHT22;13765;51.166;4.466;2023-05-09T09:51:53;16.30;99.90
25973;DHT22;13765;51.166;4.466;2023-05-09T09:54:20;16.40;99.90
25973;DHT22;13765;51.166;4.466;2023-05-09T09:56:50;16.40;99.90
25973;DHT22;13765;51.166;4.466;2023-05-09T09:59:28;16.20;99.90
25973;DHT22;13765;51.166;4.466;2023-05-09T10:02:02;16.20;99.90
25973;DHT22;13765;51.166;4.466;2023-05-09T10:04:38;16.20;99.90
25973;DHT22;13765;51.166;4.466;2023-05-09T10:07:07;16.30;99.90
25973;DHT22;13765;51.166;4.466;2023-05-09T10:09:36;16.20;99.90
25973;DHT22;13765;51.166;4.466;2023-05-09T10:12:07;16.30;99.90
25973;DHT22;13765;51.166;4.466;2023-05-09T10:14:34;16.20;99.90
25973;DHT22;13765;51.166;4.466;2023-05-09T10:17:05;16.10;99.90
25973;DHT22;13765;51.166;4.466;2023-05-09T10:19:31;16.20;99.90
25973;DHT22;13765;51.166;4.466;2023-05-09T10:22:04;16.30;99.90
25973;DHT22;13765;51.166;4.466;2023-05-09T10:27:05;16.00;99.90
25973;DHT22;13765;51.166;4.466;2023-05-09T10:29:53;15.90;99.90
25973;DHT22;13765;51.166;4.466;2023-05-09T10:32:22;15.90;99.90
25973;DHT22;13765;51.166;4.466;2023-05-09T10:34:53;16.10;99.90
25973;DHT22;13765;51.166;4.466;2023-05-09T10:37:24;16.30;99.90
25973;DHT22;13765;51.166;4.466;2023-05-09T10:39:53;16.30;99.90
25973;DHT22;13765;51.166;4.466;2023-05-09T10:42:19;16.30;99.90
25973;DHT22;13765;51.166;4.466;2023-05-09T10:44:50;16.30;99.90
25973;DHT22;13765;51.166;4.466;2023-05-09T10:47:19;16.40;99.90
25973;DHT22;13765;51.166;4.466;2023-05-09T10:49:46;16.30;99.90
25973;DHT22;13765;51.166;4.466;2023-05-09T10:52:22;16.40;99.90
25973;DHT22;13765;51.166;4.466;2023-05-09T10:55:02;16.30;99.90
25973;DHT22;13765;51.166;4.466;2023-05-09T10:57:29;16.30;99.90
25973;DHT22;13765;51.166;4.466;2023-05-09T10:59:57;16.20;99.90
25973;DHT22;13765;51.166;4.466;2023-05-09T11:02:25;16.20;99.90
25973;DHT22;13765;51.166;4.466;2023-05-09T11:05:37;16.10;99.90
25973;DHT22;13765;51.166;4.466;2023-05-09T11:08:23;16.10;99.90
25973;DHT22;13765;51.166;4.466;2023-05-09T11:10:58;16.30;99.90
25973;DHT22;13765;51.166;4.466;2023-05-09T11:13:30;16.30;99.90
25973;DHT22;13765;51.166;4.466;2023-05-09T11:18:33;16.20;99.90
25973;DHT22;13765;51.166;4.466;2023-05-09T11:21:09;16.10;99.90
25973;DHT22;13765;51.166;4.466;2023-05-09T11:23:36;16.00;99.90
25973;DHT22;13765;51.166;4.466;2023-05-09T11:26:05;16.00;99.90
25973;DHT22;13765;51.166;4.466;2023-05-09T11:28:37;16.00;99.90
25973;DHT22;13765;51.166;4.466;2023-05-09T11:33:38;15.80;99.90
25973;DHT22;13765;51.166;4.466;2023-05-09T11:36:28;15.80;99.90
25973;DHT22;13765;51.166;4.466;2023-05-09T11:41:29;15.70;99.90
25973;DHT22;13765;51.166;4.466;2023-05-09T11:43:58;15.60;99.90
25973;DHT22;13765;51.166;4.466;2023-05-09T11:46:25;15.60;99.90
25973;DHT22;13765;51.166;4.466;2023-05-09T11:48:52;15.60;99.90
25973;DHT22;13765;51.166;4.466;2023-05-09T11:51:18;15.70;99.90
25973;DHT22;13765;51.166;4.466;2023-05-09T11:53:53;15.60;99.90
25973;DHT22;13765;51.166;4.466;2023-05-09T11:56:21;15.60;99.90
25973;DHT22;13765;51.166;4.466;2023-05-09T11:58:52;15.60;99.90
25973;DHT22;13765;51.166;4.466;2023-05-09T12:01:17;15.70;99.90
25973;DHT22;13765;51.166;4.466;2023-05-09T12:03:46;15.70;99.90
25973;DHT22;13765;51.166;4.466;2023-05-09T12:06:20;15.80;99.90
25973;DHT22;13765;51.166;4.466;2023-05-09T12:08:46;15.80;99.90
25973;DHT22;13765;51.166;4.466;2023-05-09T12:11:12;15.70;99.90
25973;DHT22;13765;51.166;4.466;2023-05-09T12:13:48;15.60;99.90
25973;DHT22;13765;51.166;4.466;2023-05-09T12:16:18;15.60;99.90
25973;DHT22;13765;51.166;4.466;2023-05-09T12:18:52;15.60;99.90
25973;DHT22;13765;51.166;4.466;2023-05-09T12:21:19;15.70;99.90
25973;DHT22;13765;51.166;4.466;2023-05-09T12:23:46;15.80;99.90
25973;DHT22;13765;51.166;4.466;2023-05-09T12:26:14;15.90;99.90
25973;DHT22;13765;51.166;4.466;2023-05-09T12:28:40;15.80;99.90
25973;DHT22;13765;51.166;4.466;2023-05-09T12:31:07;15.70;99.90
25973;DHT22;13765;51.166;4.466;2023-05-09T12:33:33;15.60;99.90
25973;DHT22;13765;51.166;4.466;2023-05-09T12:36:11;15.50;99.90
25973;DHT22;13765;51.166;4.466;2023-05-09T12:38:40;15.30;99.90
25973;DHT22;13765;51.166;4.466;2023-05-09T12:41:16;15.30;99.90
25973;DHT22;13765;51.166;4.466;2023-05-09T12:43:47;15.20;99.90
25973;DHT22;13765;51.166;4.466;2023-05-09T12:46:17;15.30;99.90
25973;DHT22;13765;51.166;4.466;2023-05-09T12:48:46;15.30;99.90
25973;DHT22;13765;51.166;4.466;2023-05-09T12:51:17;15.30;99.90
25973;DHT22;13765;51.166;4.466;2023-05-09T12:53:44;15.30;99.90
25973;DHT22;13765;51.166;4.466;2023-05-09T12:56:15;15.40;99.90
25973;DHT22;13765;51.166;4.466;2023-05-09T12:58:54;15.40;99.90
25973;DHT22;13765;51.166;4.466;2023-05-09T13:01:27;15.40;99.90
25973;DHT22;13765;51.166;4.466;2023-05-09T13:04:04;15.40;99.90
25973;DHT22;13765;51.166;4.466;2023-05-09T13:06:30;15.40;99.90
25973;DHT22;13765;51.166;4.466;2023-05-09T13:09:02;15.40;99.90
25973;DHT22;13765;51.166;4.466;2023-05-09T13:11:30;15.40;99.90
25973;DHT22;13765;51.166;4.466;2023-05-09T13:13:59;15.50;99.90
25973;DHT22;13765;51.166;4.466;2023-05-09T13:16:24;15.40;99.90
25973;DHT22;13765;51.166;4.466;2023-05-09T13:18:50;15.40;99.90
25973;DHT22;13765;51.166;4.466;2023-05-09T13:21:18;15.30;99.90
25973;DHT22;13765;51.166;4.466;2023-05-09T13:23:44;15.30;99.90
25973;DHT22;13765;51.166;4.466;2023-05-09T13:26:12;15.40;99.90
25973;DHT22;13765;51.166;4.466;2023-05-09T13:28:42;15.40;99.90
25973;DHT22;13765;51.166;4.466;2023-05-09T13:31:10;15.40;99.90
25973;DHT22;13765;51.166;4.466;2023-05-09T13:33:43;15.40;99.90
25973;DHT22;13765;51.166;4.466;2023-05-09T13:36:11;15.60;99.90
25973;DHT22;13765;51.166;4.466;2023-05-09T13:38:39;15.60;99.90
25973;DHT22;13765;51.166;4.466;2023-05-09T13:41:08;15.50;99.90
25973;DHT22;13765;51.166;4.466;2023-05-09T13:43:35;15.50;99.90
25973;DHT22;13765;51.166;4.466;2023-05-09T13:46:01;15.50;99.90
25973;DHT22;13765;51.166;4.466;2023-05-09T13:48:27;15.40;99.90
25973;DHT22;13765;51.166;4.466;2023-05-09T13:50:53;15.30;99.90
25973;DHT22;13765;51.166;4.466;2023-05-09T13:53:21;15.20;99.90
25973;DHT22;13765;51.166;4.466;2023-05-09T13:55:49;15.20;99.90
25973;DHT22;13765;51.166;4.466;2023-05-09T13:58:14;15.20;99.90
25973;DHT22;13765;51.166;4.466;2023-05-09T14:00:40;15.10;99.90
25973;DHT22;13765;51.166;4.466;2023-05-09T14:03:06;15.20;99.90
25973;DHT22;13765;51.166;4.466;2023-05-09T14:05:34;15.20;99.90
25973;DHT22;13765;51.166;4.466;2023-05-09T14:08:00;15.20;99.90
25973;DHT22;13765;51.166;4.466;2023-05-09T14:10:26;15.10;99.90
25973;DHT22;13765;51.166;4.466;2023-05-09T14:12:54;15.00;99.90
25973;DHT22;13765;51.166;4.466;2023-05-09T14:15:21;14.90;99.90
25973;DHT22;13765;51.166;4.466;2023-05-09T14:17:49;14.80;99.90
25973;DHT22;13765;51.166;4.466;2023-05-09T14:20:14;14.90;99.90
25973;DHT22;13765;51.166;4.466;2023-05-09T14:22:42;14.90;99.90
25973;DHT22;13765;51.166;4.466;2023-05-09T14:25:10;14.80;99.90
25973;DHT22;13765;51.166;4.466;2023-05-09T14:27:36;14.80;99.90
25973;DHT22;13765;51.166;4.466;2023-05-09T14:30:05;14.80;99.90
25973;DHT22;13765;51.166;4.466;2023-05-09T14:32:33;14.80;99.90
25973;DHT22;13765;51.166;4.466;2023-05-09T14:35:00;14.80;99.90
25973;DHT22;13765;51.166;4.466;2023-05-09T14:37:26;14.70;99.90
25973;DHT22;13765;51.166;4.466;2023-05-09T14:39:53;14.80;99.90
25973;DHT22;13765;51.166;4.466;2023-05-09T14:42:19;14.80;99.90
25973;DHT22;13765;51.166;4.466;2023-05-09T14:44:44;14.80;99.90
25973;DHT22;13765;51.166;4.466;2023-05-09T14:47:11;14.70;99.90
25973;DHT22;13765;51.166;4.466;2023-05-09T14:49:37;14.70;99.90
25973;DHT22;13765;51.166;4.466;2023-05-09T14:52:05;14.80;99.90
25973;DHT22;13765;51.166;4.466;2023-05-09T14:54:33;14.80;99.90
25973;DHT22;13765;51.166;4.466;2023-05-09T14:56:59;14.90;99.90
25973;DHT22;13765;51.166;4.466;2023-05-09T14:59:28;14.90;99.90
25973;DHT22;13765;51.166;4.466;2023-05-09T15:01:56;15.00;99.90
25973;DHT22;13765;51.166;4.466;2023-05-09T15:04:22;15.00;99.90
25973;DHT22;13765;51.166;4.466;2023-05-09T15:06:49;15.00;99.90
25973;DHT22;13765;51.166;4.466;2023-05-09T15:09:15;15.00;99.90
25973;DHT22;13765;51.166;4.466;2023-05-09T15:11:40;14.90;99.90
25973;DHT22;13765;51.166;4.466;2023-05-09T15:14:10;15.00;99.90
25973;DHT22;13765;51.166;4.466;2023-05-09T15:16:36;15.00;99.90
25973;DHT22;13765;51.166;4.466;2023-05-09T15:19:07;15.00;99.90
25973;DHT22;13765;51.166;4.466;2023-05-09T15:21:35;15.00;99.90
25973;DHT22;13765;51.166;4.466;2023-05-09T15:24:03;15.10;99.90
25973;DHT22;13765;51.166;4.466;2023-05-09T15:26:29;15.00;99.90
25973;DHT22;13765;51.166;4.466;2023-05-09T15:28:57;15.10;99.90
25973;DHT22;13765;51.166;4.466;2023-05-09T15:31:24;15.10;99.90
25973;DHT22;13765;51.166;4.466;2023-05-09T15:33:50;15.20;99.90
25973;DHT22;13765;51.166;4.466;2023-05-09T15:36:16;15.20;99.90
25973;DHT22;13765;51.166;4.466;2023-05-09T15:38:44;15.20;99.90
25973;DHT22;13765;51.166;4.466;2023-05-09T15:41:13;15.20;99.90
25973;DHT22;13765;51.166;4.466;2023-05-09T15:43:42;15.20;99.90
25973;DHT22;13765;51.166;4.466;2023-05-09T15:46:07;15.10;99.90
25973;DHT22;13765;51.166;4.466;2023-05-09T15:48:33;15.20;99.90
25973;DHT22;13765;51.166;4.466;2023-05-09T15:51:03;15.30;99.90
25973;DHT22;13765;51.166;4.466;2023-05-09T15:53:29;15.30;99.90